sensor_id;sensor_type;location;lat;lon;timestamp;P1;durP1;ratioP1;P2;durP2;ratioP2
40515;SDS011;26216;53.724;9.898;2023-10-08T00:00:46;4.47;;;1.75;;
40515;SDS011;26216;53.724;9.898;2023-10-08T00:03:21;5.60;;;1.90;;
40515;SDS011;26216;53.724;9.898;2023-10-08T00:05:47;4.88;;;1.20;;
40515;SDS011;26216;53.724;9.898;2023-10-08T00:08:16;3.13;;;1.25;;
40515;SDS011;26216;53.724;9.898;2023-10-08T00:10:43;3.17;;;1.25;;
40515;SDS011;26216;53.724;9.898;2023-10-08T00:13:10;4.38;;;1.73;;
40515;SDS011;26216;53.724;9.898;2023-10-08T00:15:38;4.13;;;1.25;;
40515;SDS011;26216;53.724;9.898;2023-10-08T00:18:15;4.00;;;1.30;;
40515;SDS011;26216;53.724;9.898;2023-10-08T00:20:42;4.30;;;1.60;;
40515;SDS011;26216;53.724;9.898;2023-10-08T00:23:13;5.00;;;1.75;;
40515;SDS011;26216;53.724;9.898;2023-10-08T00:25:40;3.42;;;1.40;;
40515;SDS011;26216;53.724;9.898;2023-10-08T00:28:07;4.65;;;1.60;;
40515;SDS011;26216;53.724;9.898;2023-10-08T00:30:39;4.25;;;1.45;;
40515;SDS011;26216;53.724;9.898;2023-10-08T00:33:07;4.47;;;1.83;;
40515;SDS011;26216;53.724;9.898;2023-10-08T00:35:40;3.85;;;1.63;;
40515;SDS011;26216;53.724;9.898;2023-10-08T00:38:10;4.00;;;1.33;;
40515;SDS011;26216;53.724;9.898;2023-10-08T00:40:45;2.70;;;1.10;;
40515;SDS011;26216;53.724;9.898;2023-10-08T00:43:29;4.40;;;1.75;;
40515;SDS011;26216;53.724;9.898;2023-10-08T00:46:02;6.03;;;1.52;;
40515;SDS011;26216;53.724;9.898;2023-10-08T00:48:30;3.05;;;1.45;;
40515;SDS011;26216;53.724;9.898;2023-10-08T00:51:04;4.13;;;1.67;;
40515;SDS011;26216;53.724;9.898;2023-10-08T00:53:57;3.45;;;1.30;;
40515;SDS011;26216;53.724;9.898;2023-10-08T00:56:31;5.85;;;2.20;;
40515;SDS011;26216;53.724;9.898;2023-10-08T00:59:17;4.03;;;1.40;;
40515;SDS011;26216;53.724;9.898;2023-10-08T01:01:46;4.93;;;1.42;;
40515;SDS011;26216;53.724;9.898;2023-10-08T01:04:20;4.93;;;1.73;;
40515;SDS011;26216;53.724;9.898;2023-10-08T01:06:53;4.38;;;1.50;;
40515;SDS011;26216;53.724;9.898;2023-10-08T01:09:24;3.97;;;1.73;;
40515;SDS011;26216;53.724;9.898;2023-10-08T01:12:33;3.45;;;1.40;;
40515;SDS011;26216;53.724;9.898;2023-10-08T01:14:58;3.00;;;1.20;;
40515;SDS011;26216;53.724;9.898;2023-10-08T01:17:48;3.50;;;1.13;;
40515;SDS011;26216;53.724;9.898;2023-10-08T01:20:23;2.45;;;1.13;;
40515;SDS011;26216;53.724;9.898;2023-10-08T01:23:08;2.08;;;0.98;;
40515;SDS011;26216;53.724;9.898;2023-10-08T01:25:44;2.85;;;1.20;;
40515;SDS011;26216;53.724;9.898;2023-10-08T01:28:16;2.85;;;1.02;;
40515;SDS011;26216;53.724;9.898;2023-10-08T01:30:52;4.10;;;0.95;;
40515;SDS011;26216;53.724;9.898;2023-10-08T01:33:19;1.90;;;0.95;;
40515;SDS011;26216;53.724;9.898;2023-10-08T01:35:53;3.95;;;1.02;;
40515;SDS011;26216;53.724;9.898;2023-10-08T01:38:20;3.80;;;1.45;;
40515;SDS011;26216;53.724;9.898;2023-10-08T01:40:49;2.38;;;1.08;;
40515;SDS011;26216;53.724;9.898;2023-10-08T01:43:18;2.38;;;1.13;;
40515;SDS011;26216;53.724;9.898;2023-10-08T01:45:46;2.15;;;1.33;;
40515;SDS011;26216;53.724;9.898;2023-10-08T01:48:15;2.05;;;1.23;;
40515;SDS011;26216;53.724;9.898;2023-10-08T01:50:54;2.97;;;0.93;;
40515;SDS011;26216;53.724;9.898;2023-10-08T01:53:23;2.60;;;0.90;;
40515;SDS011;26216;53.724;9.898;2023-10-08T01:55:52;1.55;;;0.50;;
40515;SDS011;26216;53.724;9.898;2023-10-08T01:58:19;2.30;;;1.05;;
40515;SDS011;26216;53.724;9.898;2023-10-08T02:00:48;1.13;;;0.60;;
40515;SDS011;26216;53.724;9.898;2023-10-08T02:03:15;1.65;;;0.90;;
40515;SDS011;26216;53.724;9.898;2023-10-08T02:05:43;1.48;;;0.50;;
40515;SDS011;26216;53.724;9.898;2023-10-08T02:08:10;2.47;;;0.80;;
40515;SDS011;26216;53.724;9.898;2023-10-08T02:10:40;2.25;;;0.75;;
40515;SDS011;26216;53.724;9.898;2023-10-08T02:13:12;1.40;;;0.88;;
40515;SDS011;26216;53.724;9.898;2023-10-08T02:15:48;1.08;;;0.50;;
40515;SDS011;26216;53.724;9.898;2023-10-08T02:18:17;1.73;;;0.75;;
40515;SDS011;26216;53.724;9.898;2023-10-08T02:20:43;1.40;;;0.70;;
40515;SDS011;26216;53.724;9.898;2023-10-08T02:23:09;1.75;;;0.60;;
40515;SDS011;26216;53.724;9.898;2023-10-08T02:25:38;1.27;;;0.60;;
40515;SDS011;26216;53.724;9.898;2023-10-08T02:28:08;1.90;;;0.70;;
40515;SDS011;26216;53.724;9.898;2023-10-08T02:30:37;1.95;;;0.80;;
40515;SDS011;26216;53.724;9.898;2023-10-08T02:33:06;2.15;;;0.98;;
40515;SDS011;26216;53.724;9.898;2023-10-08T02:35:40;2.25;;;0.88;;
40515;SDS011;26216;53.724;9.898;2023-10-08T02:38:08;1.73;;;0.60;;
40515;SDS011;26216;53.724;9.898;2023-10-08T02:40:43;2.47;;;0.95;;
40515;SDS011;26216;53.724;9.898;2023-10-08T02:43:13;0.90;;;0.60;;
40515;SDS011;26216;53.724;9.898;2023-10-08T02:45:40;1.33;;;0.65;;
40515;SDS011;26216;53.724;9.898;2023-10-08T02:48:07;2.50;;;0.88;;
40515;SDS011;26216;53.724;9.898;2023-10-08T02:50:42;1.80;;;0.82;;
40515;SDS011;26216;53.724;9.898;2023-10-08T02:53:12;1.77;;;0.63;;
40515;SDS011;26216;53.724;9.898;2023-10-08T02:55:43;3.75;;;0.80;;
40515;SDS011;26216;53.724;9.898;2023-10-08T02:58:12;0.85;;;0.50;;
40515;SDS011;26216;53.724;9.898;2023-10-08T03:00:47;2.83;;;0.90;;
40515;SDS011;26216;53.724;9.898;2023-10-08T03:03:14;1.58;;;0.73;;
40515;SDS011;26216;53.724;9.898;2023-10-08T03:05:44;1.30;;;0.60;;
40515;SDS011;26216;53.724;9.898;2023-10-08T03:08:14;1.20;;;0.52;;
40515;SDS011;26216;53.724;9.898;2023-10-08T03:10:48;1.23;;;0.60;;
40515;SDS011;26216;53.724;9.898;2023-10-08T03:13:16;1.17;;;0.50;;
40515;SDS011;26216;53.724;9.898;2023-10-08T03:15:42;2.72;;;0.70;;
40515;SDS011;26216;53.724;9.898;2023-10-08T03:18:23;1.83;;;0.77;;
40515;SDS011;26216;53.724;9.898;2023-10-08T03:20:50;2.33;;;0.68;;
40515;SDS011;26216;53.724;9.898;2023-10-08T03:23:16;1.05;;;0.43;;
40515;SDS011;26216;53.724;9.898;2023-10-08T03:25:52;0.95;;;0.50;;
40515;SDS011;26216;53.724;9.898;2023-10-08T03:28:37;1.42;;;0.60;;
40515;SDS011;26216;53.724;9.898;2023-10-08T03:31:06;0.95;;;0.60;;
40515;SDS011;26216;53.724;9.898;2023-10-08T03:33:39;0.73;;;0.38;;
40515;SDS011;26216;53.724;9.898;2023-10-08T03:36:06;1.17;;;0.50;;
40515;SDS011;26216;53.724;9.898;2023-10-08T03:38:59;1.45;;;0.60;;
40515;SDS011;26216;53.724;9.898;2023-10-08T03:41:36;1.67;;;0.60;;
40515;SDS011;26216;53.724;9.898;2023-10-08T03:44:05;1.30;;;0.60;;
40515;SDS011;26216;53.724;9.898;2023-10-08T03:46:38;1.02;;;0.60;;
40515;SDS011;26216;53.724;9.898;2023-10-08T03:49:06;1.00;;;0.50;;
40515;SDS011;26216;53.724;9.898;2023-10-08T03:51:39;1.05;;;0.50;;
40515;SDS011;26216;53.724;9.898;2023-10-08T03:54:08;1.27;;;0.60;;
40515;SDS011;26216;53.724;9.898;2023-10-08T03:56:34;1.05;;;0.50;;
40515;SDS011;26216;53.724;9.898;2023-10-08T03:59:02;0.75;;;0.50;;
40515;SDS011;26216;53.724;9.898;2023-10-08T04:01:38;1.25;;;0.68;;
40515;SDS011;26216;53.724;9.898;2023-10-08T04:04:10;0.80;;;0.50;;
40515;SDS011;26216;53.724;9.898;2023-10-08T04:06:39;6.35;;;0.68;;
40515;SDS011;26216;53.724;9.898;2023-10-08T04:09:16;1.00;;;0.60;;
40515;SDS011;26216;53.724;9.898;2023-10-08T04:11:49;0.68;;;0.43;;
40515;SDS011;26216;53.724;9.898;2023-10-08T04:14:16;0.88;;;0.50;;
40515;SDS011;26216;53.724;9.898;2023-10-08T04:16:43;0.95;;;0.40;;
40515;SDS011;26216;53.724;9.898;2023-10-08T04:19:09;0.70;;;0.40;;
40515;SDS011;26216;53.724;9.898;2023-10-08T04:21:36;0.30;;;0.30;;
40515;SDS011;26216;53.724;9.898;2023-10-08T04:24:02;1.15;;;0.47;;
40515;SDS011;26216;53.724;9.898;2023-10-08T04:26:29;1.58;;;0.40;;
40515;SDS011;26216;53.724;9.898;2023-10-08T04:28:57;0.98;;;0.43;;
40515;SDS011;26216;53.724;9.898;2023-10-08T04:31:26;1.67;;;0.50;;
40515;SDS011;26216;53.724;9.898;2023-10-08T04:34:12;0.65;;;0.50;;
40515;SDS011;26216;53.724;9.898;2023-10-08T04:36:44;1.55;;;0.52;;
40515;SDS011;26216;53.724;9.898;2023-10-08T04:39:14;1.05;;;0.30;;
40515;SDS011;26216;53.724;9.898;2023-10-08T04:41:46;0.52;;;0.40;;
40515;SDS011;26216;53.724;9.898;2023-10-08T04:44:20;0.88;;;0.30;;
40515;SDS011;26216;53.724;9.898;2023-10-08T04:46:46;0.90;;;0.50;;
40515;SDS011;26216;53.724;9.898;2023-10-08T04:49:15;0.60;;;0.30;;
40515;SDS011;26216;53.724;9.898;2023-10-08T04:52:06;0.68;;;0.32;;
40515;SDS011;26216;53.724;9.898;2023-10-08T04:54:43;0.82;;;0.50;;
40515;SDS011;26216;53.724;9.898;2023-10-08T04:57:30;1.80;;;0.95;;
40515;SDS011;26216;53.724;9.898;2023-10-08T04:59:59;1.73;;;0.70;;
40515;SDS011;26216;53.724;9.898;2023-10-08T05:02:26;0.85;;;0.50;;
40515;SDS011;26216;53.724;9.898;2023-10-08T05:05:01;1.85;;;0.40;;
40515;SDS011;26216;53.724;9.898;2023-10-08T05:07:36;1.17;;;0.50;;
40515;SDS011;26216;53.724;9.898;2023-10-08T05:10:12;0.73;;;0.47;;
40515;SDS011;26216;53.724;9.898;2023-10-08T05:12:54;1.00;;;0.50;;
40515;SDS011;26216;53.724;9.898;2023-10-08T05:15:40;0.57;;;0.47;;
40515;SDS011;26216;53.724;9.898;2023-10-08T05:18:12;0.47;;;0.30;;
40515;SDS011;26216;53.724;9.898;2023-10-08T05:23:24;0.60;;;0.40;;
40515;SDS011;26216;53.724;9.898;2023-10-08T05:25:54;1.38;;;0.50;;
40515;SDS011;26216;53.724;9.898;2023-10-08T05:28:30;0.35;;;0.30;;
40515;SDS011;26216;53.724;9.898;2023-10-08T05:31:07;1.38;;;0.30;;
40515;SDS011;26216;53.724;9.898;2023-10-08T05:33:39;1.35;;;0.50;;
40515;SDS011;26216;53.724;9.898;2023-10-08T05:36:35;0.43;;;0.28;;
40515;SDS011;26216;53.724;9.898;2023-10-08T05:39:36;0.90;;;0.50;;
40515;SDS011;26216;53.724;9.898;2023-10-08T05:42:08;1.05;;;0.60;;
40515;SDS011;26216;53.724;9.898;2023-10-08T05:45:06;0.68;;;0.35;;
40515;SDS011;26216;53.724;9.898;2023-10-08T05:47:35;0.75;;;0.40;;
40515;SDS011;26216;53.724;9.898;2023-10-08T05:50:02;0.43;;;0.32;;
40515;SDS011;26216;53.724;9.898;2023-10-08T05:52:55;0.95;;;0.40;;
40515;SDS011;26216;53.724;9.898;2023-10-08T05:55:29;0.63;;;0.35;;
40515;SDS011;26216;53.724;9.898;2023-10-08T05:58:05;0.98;;;0.38;;
40515;SDS011;26216;53.724;9.898;2023-10-08T06:00:45;1.02;;;0.70;;
40515;SDS011;26216;53.724;9.898;2023-10-08T06:03:31;0.52;;;0.30;;
40515;SDS011;26216;53.724;9.898;2023-10-08T06:05:58;0.65;;;0.40;;
40515;SDS011;26216;53.724;9.898;2023-10-08T06:08:48;0.63;;;0.40;;
40515;SDS011;26216;53.724;9.898;2023-10-08T06:11:32;0.40;;;0.30;;
40515;SDS011;26216;53.724;9.898;2023-10-08T06:14:19;0.43;;;0.30;;
40515;SDS011;26216;53.724;9.898;2023-10-08T06:17:13;0.98;;;0.40;;
40515;SDS011;26216;53.724;9.898;2023-10-08T06:19:52;0.60;;;0.32;;
40515;SDS011;26216;53.724;9.898;2023-10-08T06:22:18;0.95;;;0.40;;
40515;SDS011;26216;53.724;9.898;2023-10-08T06:24:44;0.82;;;0.50;;
40515;SDS011;26216;53.724;9.898;2023-10-08T06:27:11;1.67;;;0.30;;
40515;SDS011;26216;53.724;9.898;2023-10-08T06:29:42;1.02;;;0.52;;
40515;SDS011;26216;53.724;9.898;2023-10-08T06:32:09;0.88;;;0.50;;
40515;SDS011;26216;53.724;9.898;2023-10-08T06:34:37;0.80;;;0.55;;
40515;SDS011;26216;53.724;9.898;2023-10-08T06:37:05;1.00;;;0.40;;
40515;SDS011;26216;53.724;9.898;2023-10-08T06:39:33;0.82;;;0.40;;
40515;SDS011;26216;53.724;9.898;2023-10-08T06:42:12;1.73;;;0.47;;
40515;SDS011;26216;53.724;9.898;2023-10-08T06:44:42;0.75;;;0.30;;
40515;SDS011;26216;53.724;9.898;2023-10-08T06:47:12;1.00;;;0.50;;
40515;SDS011;26216;53.724;9.898;2023-10-08T06:49:41;0.65;;;0.40;;
40515;SDS011;26216;53.724;9.898;2023-10-08T06:52:08;0.93;;;0.50;;
40515;SDS011;26216;53.724;9.898;2023-10-08T06:54:36;0.75;;;0.40;;
40515;SDS011;26216;53.724;9.898;2023-10-08T06:57:02;1.20;;;0.50;;
40515;SDS011;26216;53.724;9.898;2023-10-08T06:59:28;1.55;;;0.95;;
40515;SDS011;26216;53.724;9.898;2023-10-08T07:01:56;1.13;;;0.50;;
40515;SDS011;26216;53.724;9.898;2023-10-08T07:04:24;1.13;;;0.60;;
40515;SDS011;26216;53.724;9.898;2023-10-08T07:06:50;0.45;;;0.40;;
40515;SDS011;26216;53.724;9.898;2023-10-08T07:09:16;1.15;;;0.50;;
40515;SDS011;26216;53.724;9.898;2023-10-08T07:11:51;0.60;;;0.40;;
40515;SDS011;26216;53.724;9.898;2023-10-08T07:14:21;0.90;;;0.60;;
40515;SDS011;26216;53.724;9.898;2023-10-08T07:16:58;2.10;;;0.70;;
40515;SDS011;26216;53.724;9.898;2023-10-08T07:19:28;2.78;;;0.95;;
40515;SDS011;26216;53.724;9.898;2023-10-08T07:22:02;1.92;;;0.80;;
40515;SDS011;26216;53.724;9.898;2023-10-08T07:24:43;2.57;;;0.70;;
40515;SDS011;26216;53.724;9.898;2023-10-08T07:27:11;2.67;;;1.23;;
40515;SDS011;26216;53.724;9.898;2023-10-08T07:29:37;2.78;;;1.40;;
40515;SDS011;26216;53.724;9.898;2023-10-08T07:32:03;3.35;;;1.00;;
40515;SDS011;26216;53.724;9.898;2023-10-08T07:34:51;3.58;;;1.02;;
40515;SDS011;26216;53.724;9.898;2023-10-08T07:37:22;1.83;;;0.93;;
40515;SDS011;26216;53.724;9.898;2023-10-08T07:39:48;1.60;;;0.77;;
40515;SDS011;26216;53.724;9.898;2023-10-08T07:42:16;1.95;;;0.80;;
40515;SDS011;26216;53.724;9.898;2023-10-08T07:44:42;3.30;;;0.90;;
40515;SDS011;26216;53.724;9.898;2023-10-08T07:47:08;2.22;;;0.90;;
40515;SDS011;26216;53.724;9.898;2023-10-08T07:49:39;1.67;;;0.73;;
40515;SDS011;26216;53.724;9.898;2023-10-08T07:52:08;1.13;;;0.70;;
40515;SDS011;26216;53.724;9.898;2023-10-08T07:54:34;2.40;;;1.13;;
40515;SDS011;26216;53.724;9.898;2023-10-08T07:57:03;2.88;;;0.95;;
40515;SDS011;26216;53.724;9.898;2023-10-08T07:59:36;2.78;;;0.95;;
40515;SDS011;26216;53.724;9.898;2023-10-08T08:02:07;3.00;;;1.08;;
40515;SDS011;26216;53.724;9.898;2023-10-08T08:04:43;2.28;;;1.10;;
40515;SDS011;26216;53.724;9.898;2023-10-08T08:07:11;2.58;;;0.93;;
40515;SDS011;26216;53.724;9.898;2023-10-08T08:09:50;2.38;;;0.90;;
40515;SDS011;26216;53.724;9.898;2023-10-08T08:12:23;2.08;;;0.75;;
40515;SDS011;26216;53.724;9.898;2023-10-08T08:14:57;1.98;;;0.65;;
40515;SDS011;26216;53.724;9.898;2023-10-08T08:17:24;1.17;;;0.50;;
40515;SDS011;26216;53.724;9.898;2023-10-08T08:19:51;2.85;;;0.85;;
40515;SDS011;26216;53.724;9.898;2023-10-08T08:22:18;3.63;;;1.02;;
40515;SDS011;26216;53.724;9.898;2023-10-08T08:24:48;5.38;;;1.20;;
40515;SDS011;26216;53.724;9.898;2023-10-08T08:27:30;3.75;;;1.13;;
40515;SDS011;26216;53.724;9.898;2023-10-08T08:29:58;1.45;;;0.50;;
40515;SDS011;26216;53.724;9.898;2023-10-08T08:32:45;3.42;;;1.10;;
40515;SDS011;26216;53.724;9.898;2023-10-08T08:35:14;3.63;;;0.80;;
40515;SDS011;26216;53.724;9.898;2023-10-08T08:37:45;2.90;;;0.68;;
40515;SDS011;26216;53.724;9.898;2023-10-08T08:40:17;3.13;;;0.80;;
40515;SDS011;26216;53.724;9.898;2023-10-08T08:42:44;3.58;;;0.80;;
40515;SDS011;26216;53.724;9.898;2023-10-08T08:45:12;2.25;;;0.73;;
40515;SDS011;26216;53.724;9.898;2023-10-08T08:48:17;1.92;;;0.73;;
40515;SDS011;26216;53.724;9.898;2023-10-08T08:50:55;1.55;;;0.70;;
40515;SDS011;26216;53.724;9.898;2023-10-08T08:53:21;2.50;;;0.70;;
40515;SDS011;26216;53.724;9.898;2023-10-08T08:55:48;3.08;;;0.80;;
40515;SDS011;26216;53.724;9.898;2023-10-08T08:58:17;2.17;;;0.70;;
40515;SDS011;26216;53.724;9.898;2023-10-08T09:00:44;2.25;;;0.65;;
40515;SDS011;26216;53.724;9.898;2023-10-08T09:03:12;2.67;;;0.70;;
40515;SDS011;26216;53.724;9.898;2023-10-08T09:05:38;2.80;;;0.73;;
40515;SDS011;26216;53.724;9.898;2023-10-08T09:08:06;2.17;;;0.90;;
40515;SDS011;26216;53.724;9.898;2023-10-08T09:10:33;1.60;;;0.80;;
40515;SDS011;26216;53.724;9.898;2023-10-08T09:13:18;2.63;;;0.70;;
40515;SDS011;26216;53.724;9.898;2023-10-08T09:15:46;1.20;;;0.63;;
40515;SDS011;26216;53.724;9.898;2023-10-08T09:18:12;2.47;;;0.70;;
40515;SDS011;26216;53.724;9.898;2023-10-08T09:20:40;2.45;;;0.50;;
40515;SDS011;26216;53.724;9.898;2023-10-08T09:23:12;1.40;;;0.80;;
40515;SDS011;26216;53.724;9.898;2023-10-08T09:25:42;1.38;;;0.70;;
40515;SDS011;26216;53.724;9.898;2023-10-08T09:28:10;0.85;;;0.57;;
40515;SDS011;26216;53.724;9.898;2023-10-08T09:30:39;2.38;;;0.95;;
40515;SDS011;26216;53.724;9.898;2023-10-08T09:33:08;2.58;;;0.90;;
40515;SDS011;26216;53.724;9.898;2023-10-08T09:35:36;3.05;;;0.90;;
40515;SDS011;26216;53.724;9.898;2023-10-08T09:38:02;5.63;;;0.73;;
40515;SDS011;26216;53.724;9.898;2023-10-08T09:40:29;3.13;;;0.75;;
40515;SDS011;26216;53.724;9.898;2023-10-08T09:42:55;1.30;;;0.73;;
40515;SDS011;26216;53.724;9.898;2023-10-08T09:45:25;1.95;;;0.60;;
40515;SDS011;26216;53.724;9.898;2023-10-08T09:47:54;1.58;;;0.70;;
40515;SDS011;26216;53.724;9.898;2023-10-08T09:50:22;1.67;;;0.60;;
40515;SDS011;26216;53.724;9.898;2023-10-08T09:53:01;2.13;;;1.00;;
40515;SDS011;26216;53.724;9.898;2023-10-08T09:55:36;2.25;;;0.82;;
40515;SDS011;26216;53.724;9.898;2023-10-08T09:58:03;2.50;;;0.77;;
40515;SDS011;26216;53.724;9.898;2023-10-08T10:00:31;5.75;;;0.65;;
40515;SDS011;26216;53.724;9.898;2023-10-08T10:02:58;1.48;;;0.70;;
40515;SDS011;26216;53.724;9.898;2023-10-08T10:05:33;3.25;;;0.80;;
40515;SDS011;26216;53.724;9.898;2023-10-08T10:08:05;3.22;;;0.90;;
40515;SDS011;26216;53.724;9.898;2023-10-08T10:10:35;4.95;;;0.80;;
40515;SDS011;26216;53.724;9.898;2023-10-08T10:13:11;1.20;;;0.63;;
40515;SDS011;26216;53.724;9.898;2023-10-08T10:15:38;1.63;;;0.60;;
40515;SDS011;26216;53.724;9.898;2023-10-08T10:18:27;3.20;;;0.68;;
40515;SDS011;26216;53.724;9.898;2023-10-08T10:20:57;1.30;;;0.60;;
40515;SDS011;26216;53.724;9.898;2023-10-08T10:26:23;1.13;;;0.50;;
40515;SDS011;26216;53.724;9.898;2023-10-08T10:31:50;1.55;;;0.77;;
40515;SDS011;26216;53.724;9.898;2023-10-08T10:34:28;2.28;;;0.70;;
40515;SDS011;26216;53.724;9.898;2023-10-08T10:36:56;3.28;;;0.80;;
40515;SDS011;26216;53.724;9.898;2023-10-08T10:39:24;2.10;;;0.82;;
40515;SDS011;26216;53.724;9.898;2023-10-08T10:41:53;1.48;;;0.55;;
40515;SDS011;26216;53.724;9.898;2023-10-08T10:44:23;1.33;;;0.50;;
40515;SDS011;26216;53.724;9.898;2023-10-08T10:46:50;2.53;;;0.52;;
40515;SDS011;26216;53.724;9.898;2023-10-08T10:49:16;2.67;;;0.98;;
40515;SDS011;26216;53.724;9.898;2023-10-08T10:51:44;0.95;;;0.43;;
40515;SDS011;26216;53.724;9.898;2023-10-08T10:54:18;1.88;;;0.60;;
40515;SDS011;26216;53.724;9.898;2023-10-08T10:56:46;0.60;;;0.47;;
40515;SDS011;26216;53.724;9.898;2023-10-08T10:59:13;1.90;;;0.65;;
40515;SDS011;26216;53.724;9.898;2023-10-08T11:01:48;2.15;;;0.73;;
40515;SDS011;26216;53.724;9.898;2023-10-08T11:04:34;2.25;;;0.70;;
40515;SDS011;26216;53.724;9.898;2023-10-08T11:07:19;1.88;;;0.60;;
40515;SDS011;26216;53.724;9.898;2023-10-08T11:09:47;1.73;;;0.77;;
40515;SDS011;26216;53.724;9.898;2023-10-08T11:12:13;0.68;;;0.40;;
40515;SDS011;26216;53.724;9.898;2023-10-08T11:14:46;1.42;;;0.50;;
40515;SDS011;26216;53.724;9.898;2023-10-08T11:17:13;1.30;;;0.55;;
40515;SDS011;26216;53.724;9.898;2023-10-08T11:19:42;3.47;;;0.70;;
40515;SDS011;26216;53.724;9.898;2023-10-08T11:22:11;1.25;;;0.60;;
40515;SDS011;26216;53.724;9.898;2023-10-08T11:24:45;1.10;;;0.68;;
40515;SDS011;26216;53.724;9.898;2023-10-08T11:27:19;0.85;;;0.45;;
40515;SDS011;26216;53.724;9.898;2023-10-08T11:29:54;3.83;;;0.70;;
40515;SDS011;26216;53.724;9.898;2023-10-08T11:32:26;0.40;;;0.40;;
40515;SDS011;26216;53.724;9.898;2023-10-08T11:34:55;1.35;;;0.82;;
40515;SDS011;26216;53.724;9.898;2023-10-08T11:37:31;1.30;;;0.50;;
40515;SDS011;26216;53.724;9.898;2023-10-08T11:40:01;1.13;;;0.70;;
40515;SDS011;26216;53.724;9.898;2023-10-08T11:42:38;2.38;;;0.50;;
40515;SDS011;26216;53.724;9.898;2023-10-08T11:45:04;0.80;;;0.60;;
40515;SDS011;26216;53.724;9.898;2023-10-08T11:47:51;0.90;;;0.57;;
40515;SDS011;26216;53.724;9.898;2023-10-08T11:50:28;1.20;;;0.60;;
40515;SDS011;26216;53.724;9.898;2023-10-08T11:53:00;0.95;;;0.60;;
40515;SDS011;26216;53.724;9.898;2023-10-08T11:55:33;1.25;;;0.60;;
40515;SDS011;26216;53.724;9.898;2023-10-08T11:58:03;1.65;;;0.70;;
40515;SDS011;26216;53.724;9.898;2023-10-08T12:00:36;0.80;;;0.40;;
40515;SDS011;26216;53.724;9.898;2023-10-08T12:03:10;1.80;;;0.50;;
40515;SDS011;26216;53.724;9.898;2023-10-08T12:05:37;1.90;;;0.50;;
40515;SDS011;26216;53.724;9.898;2023-10-08T12:08:15;1.17;;;0.73;;
40515;SDS011;26216;53.724;9.898;2023-10-08T12:10:46;0.77;;;0.55;;
40515;SDS011;26216;53.724;9.898;2023-10-08T12:13:13;1.47;;;0.60;;
40515;SDS011;26216;53.724;9.898;2023-10-08T12:15:41;2.85;;;0.50;;
40515;SDS011;26216;53.724;9.898;2023-10-08T12:18:10;0.52;;;0.40;;
40515;SDS011;26216;53.724;9.898;2023-10-08T12:20:52;1.33;;;0.55;;
40515;SDS011;26216;53.724;9.898;2023-10-08T12:23:19;0.90;;;0.50;;
40515;SDS011;26216;53.724;9.898;2023-10-08T12:25:54;0.60;;;0.50;;
40515;SDS011;26216;53.724;9.898;2023-10-08T12:28:21;1.00;;;0.40;;
40515;SDS011;26216;53.724;9.898;2023-10-08T12:30:50;1.15;;;0.50;;
40515;SDS011;26216;53.724;9.898;2023-10-08T12:33:21;1.05;;;0.52;;
40515;SDS011;26216;53.724;9.898;2023-10-08T12:35:50;1.05;;;0.50;;
40515;SDS011;26216;53.724;9.898;2023-10-08T12:38:21;2.63;;;0.50;;
40515;SDS011;26216;53.724;9.898;2023-10-08T12:40:48;1.20;;;0.50;;
40515;SDS011;26216;53.724;9.898;2023-10-08T12:43:25;1.25;;;0.50;;
40515;SDS011;26216;53.724;9.898;2023-10-08T12:45:54;1.60;;;0.50;;
40515;SDS011;26216;53.724;9.898;2023-10-08T12:48:22;1.30;;;0.60;;
40515;SDS011;26216;53.724;9.898;2023-10-08T12:50:49;1.33;;;0.50;;
40515;SDS011;26216;53.724;9.898;2023-10-08T12:53:22;0.70;;;0.50;;
40515;SDS011;26216;53.724;9.898;2023-10-08T12:55:55;1.48;;;0.60;;
40515;SDS011;26216;53.724;9.898;2023-10-08T12:58:23;1.33;;;0.60;;
40515;SDS011;26216;53.724;9.898;2023-10-08T13:00:53;1.30;;;0.68;;
40515;SDS011;26216;53.724;9.898;2023-10-08T13:03:29;1.95;;;0.63;;
40515;SDS011;26216;53.724;9.898;2023-10-08T13:05:59;1.13;;;0.63;;
40515;SDS011;26216;53.724;9.898;2023-10-08T13:08:31;1.08;;;0.60;;
40515;SDS011;26216;53.724;9.898;2023-10-08T13:10:59;1.88;;;0.50;;
40515;SDS011;26216;53.724;9.898;2023-10-08T13:13:33;1.25;;;0.43;;
40515;SDS011;26216;53.724;9.898;2023-10-08T13:16:00;0.70;;;0.50;;
40515;SDS011;26216;53.724;9.898;2023-10-08T13:18:35;0.80;;;0.50;;
40515;SDS011;26216;53.724;9.898;2023-10-08T13:21:03;1.15;;;0.40;;
40515;SDS011;26216;53.724;9.898;2023-10-08T13:23:30;0.63;;;0.40;;
40515;SDS011;26216;53.724;9.898;2023-10-08T13:25:58;0.93;;;0.50;;
40515;SDS011;26216;53.724;9.898;2023-10-08T13:28:29;1.20;;;0.50;;
40515;SDS011;26216;53.724;9.898;2023-10-08T13:30:59;1.08;;;0.50;;
40515;SDS011;26216;53.724;9.898;2023-10-08T13:33:37;1.23;;;0.30;;
40515;SDS011;26216;53.724;9.898;2023-10-08T13:36:07;1.40;;;0.60;;
40515;SDS011;26216;53.724;9.898;2023-10-08T13:38:35;1.10;;;0.60;;
40515;SDS011;26216;53.724;9.898;2023-10-08T13:41:02;1.00;;;0.50;;
40515;SDS011;26216;53.724;9.898;2023-10-08T13:43:33;1.33;;;0.60;;
40515;SDS011;26216;53.724;9.898;2023-10-08T13:46:06;1.23;;;0.60;;
40515;SDS011;26216;53.724;9.898;2023-10-08T13:48:38;0.95;;;0.50;;
40515;SDS011;26216;53.724;9.898;2023-10-08T13:51:06;0.93;;;0.50;;
40515;SDS011;26216;53.724;9.898;2023-10-08T13:53:55;1.10;;;0.50;;
40515;SDS011;26216;53.724;9.898;2023-10-08T13:56:34;0.95;;;0.60;;
40515;SDS011;26216;53.724;9.898;2023-10-08T13:59:03;2.60;;;0.68;;
40515;SDS011;26216;53.724;9.898;2023-10-08T14:01:37;1.20;;;0.60;;
40515;SDS011;26216;53.724;9.898;2023-10-08T14:04:06;1.02;;;0.63;;
40515;SDS011;26216;53.724;9.898;2023-10-08T14:06:38;0.50;;;0.30;;
40515;SDS011;26216;53.724;9.898;2023-10-08T14:09:13;2.28;;;0.80;;
40515;SDS011;26216;53.724;9.898;2023-10-08T14:11:50;1.00;;;0.40;;
40515;SDS011;26216;53.724;9.898;2023-10-08T14:14:19;1.40;;;0.50;;
40515;SDS011;26216;53.724;9.898;2023-10-08T14:16:48;0.75;;;0.60;;
40515;SDS011;26216;53.724;9.898;2023-10-08T14:19:18;1.58;;;0.77;;
40515;SDS011;26216;53.724;9.898;2023-10-08T14:21:53;0.70;;;0.40;;
40515;SDS011;26216;53.724;9.898;2023-10-08T14:24:30;1.05;;;0.60;;
40515;SDS011;26216;53.724;9.898;2023-10-08T14:27:03;1.30;;;0.60;;
40515;SDS011;26216;53.724;9.898;2023-10-08T14:29:38;0.93;;;0.47;;
40515;SDS011;26216;53.724;9.898;2023-10-08T14:32:12;1.70;;;0.60;;
40515;SDS011;26216;53.724;9.898;2023-10-08T14:34:40;0.43;;;0.40;;
40515;SDS011;26216;53.724;9.898;2023-10-08T14:37:12;1.02;;;0.57;;
40515;SDS011;26216;53.724;9.898;2023-10-08T14:39:57;1.73;;;0.73;;
40515;SDS011;26216;53.724;9.898;2023-10-08T14:42:59;1.60;;;0.45;;
40515;SDS011;26216;53.724;9.898;2023-10-08T14:45:34;0.50;;;0.40;;
40515;SDS011;26216;53.724;9.898;2023-10-08T14:48:00;1.00;;;0.60;;
40515;SDS011;26216;53.724;9.898;2023-10-08T14:50:27;0.90;;;0.63;;
40515;SDS011;26216;53.724;9.898;2023-10-08T14:52:56;0.70;;;0.60;;
40515;SDS011;26216;53.724;9.898;2023-10-08T14:55:25;1.95;;;0.55;;
40515;SDS011;26216;53.724;9.898;2023-10-08T14:57:51;1.35;;;0.57;;
40515;SDS011;26216;53.724;9.898;2023-10-08T15:00:18;2.40;;;1.27;;
40515;SDS011;26216;53.724;9.898;2023-10-08T15:02:52;4.45;;;2.60;;
40515;SDS011;26216;53.724;9.898;2023-10-08T15:05:21;6.75;;;4.35;;
40515;SDS011;26216;53.724;9.898;2023-10-08T15:07:51;6.45;;;4.45;;
40515;SDS011;26216;53.724;9.898;2023-10-08T15:10:17;7.43;;;5.28;;
40515;SDS011;26216;53.724;9.898;2023-10-08T15:12:44;7.32;;;5.10;;
40515;SDS011;26216;53.724;9.898;2023-10-08T15:15:10;8.50;;;5.47;;
40515;SDS011;26216;53.724;9.898;2023-10-08T15:17:42;8.82;;;6.30;;
40515;SDS011;26216;53.724;9.898;2023-10-08T15:20:14;10.07;;;6.97;;
40515;SDS011;26216;53.724;9.898;2023-10-08T15:22:42;9.70;;;7.13;;
40515;SDS011;26216;53.724;9.898;2023-10-08T15:25:09;10.57;;;7.03;;